createdAt,value
2019-06-01T00:02:15.744Z,100.00
2019-06-01T00:04:45.350Z,100.00
2019-06-01T00:07:14.773Z,100.00
2019-06-01T00:09:45.155Z,100.00
2019-06-01T00:12:14.676Z,100.00
2019-06-01T00:14:44.021Z,100.00
2019-06-01T00:17:13.390Z,100.00
2019-06-01T00:19:43.828Z,100.00
2019-06-01T00:22:13.463Z,100.00
2019-06-01T00:24:43.779Z,100.00
2019-06-01T00:27:13.561Z,100.00
2019-06-01T00:29:42.998Z,100.00
2019-06-01T00:32:12.369Z,100.00
2019-06-01T00:34:41.847Z,100.00
2019-06-01T00:37:11.289Z,100.00
2019-06-01T00:39:41.654Z,100.00
2019-06-01T00:42:11.061Z,100.00
2019-06-01T00:44:40.483Z,100.00
2019-06-01T00:47:10.026Z,100.00
2019-06-01T00:49:39.441Z,100.00
2019-06-01T00:52:08.805Z,99.78
2019-06-01T00:54:38.181Z,99.93
2019-06-01T00:57:07.567Z,99.22
2019-06-01T00:59:37.024Z,99.33
2019-06-01T01:02:06.389Z,99.59
2019-06-01T01:04:35.819Z,99.00
2019-06-01T01:07:05.477Z,99.17
2019-06-01T01:09:34.852Z,98.98
2019-06-01T01:12:04.285Z,99.33
2019-06-01T01:14:33.642Z,99.20
2019-06-01T01:17:03.091Z,99.39
2019-06-01T01:19:32.843Z,99.41
2019-06-01T01:22:02.262Z,99.24
2019-06-01T01:24:31.760Z,99.05
2019-06-01T01:27:03.237Z,99.63
2019-06-01T01:29:32.602Z,99.35
2019-06-01T01:32:02.005Z,99.54
2019-06-01T01:34:31.383Z,99.65
2019-06-01T01:37:00.746Z,99.70
2019-06-01T01:39:30.131Z,99.53
2019-06-01T01:41:59.457Z,99.78
2019-06-01T01:44:28.836Z,99.79
2019-06-01T01:46:59.043Z,99.82
2019-06-01T01:49:28.547Z,99.66
2019-06-01T01:51:57.937Z,99.37
2019-06-01T01:54:27.298Z,99.36
2019-06-01T01:56:56.641Z,99.42
2019-06-01T01:59:26.032Z,99.09
2019-06-01T02:01:56.345Z,99.08
2019-06-01T02:04:26.000Z,98.79
2019-06-01T02:06:55.963Z,98.50
2019-06-01T02:09:25.435Z,98.62
2019-06-01T02:11:55.423Z,98.34
2019-06-01T02:14:24.875Z,98.29
2019-06-01T02:16:54.240Z,98.16
2019-06-01T02:19:23.664Z,98.13
2019-06-01T02:21:53.012Z,98.01
2019-06-01T02:24:22.394Z,98.56
2019-06-01T02:26:53.082Z,98.86
2019-06-01T02:29:22.563Z,99.25
2019-06-01T02:31:51.924Z,99.48
2019-06-01T02:34:21.305Z,99.88
2019-06-01T02:36:50.812Z,100.00
2019-06-01T02:39:20.206Z,100.00
2019-06-01T02:41:49.574Z,100.00
2019-06-01T02:44:19.036Z,100.00
2019-06-01T02:46:48.415Z,100.00
2019-06-01T02:49:17.882Z,100.00
2019-06-01T02:51:47.852Z,100.00
2019-06-01T02:54:17.311Z,100.00
2019-06-01T02:56:46.687Z,100.00
2019-06-01T02:59:16.048Z,100.00
2019-06-01T03:01:56.844Z,99.69
2019-06-01T03:04:18.512Z,99.57
2019-06-01T03:06:50.377Z,99.29
2019-06-01T03:09:21.578Z,99.40
2019-06-01T03:11:53.264Z,99.25
2019-06-01T03:14:24.960Z,98.71
2019-06-01T03:16:56.241Z,98.73
2019-06-01T03:19:27.599Z,98.41
2019-06-01T03:22:04.871Z,98.17
2019-06-01T03:24:37.012Z,98.24
2019-06-01T03:27:06.685Z,98.10
2019-06-01T03:29:41.493Z,98.05
2019-06-01T03:32:29.732Z,98.25
2019-06-01T03:34:42.871Z,98.68
2019-06-01T03:37:13.388Z,98.85
2019-06-01T03:39:42.933Z,99.00
2019-06-01T03:42:12.857Z,98.86
2019-06-01T03:44:42.253Z,98.99
2019-06-01T03:47:12.015Z,98.81
2019-06-01T03:49:41.459Z,98.79
2019-06-01T03:52:10.867Z,98.95
2019-06-01T03:54:40.191Z,98.92
2019-06-01T03:57:09.603Z,98.66
2019-06-01T03:59:39.003Z,98.19
2019-06-01T04:02:09.181Z,97.53
2019-06-01T04:04:38.701Z,97.13
2019-06-01T04:07:08.348Z,97.41
2019-06-01T04:09:37.793Z,97.35
2019-06-01T04:12:07.671Z,97.26
2019-06-01T04:14:37.217Z,96.53
2019-06-01T04:17:08.011Z,96.78
2019-06-01T04:19:37.608Z,96.34
2019-06-01T04:22:10.072Z,96.54
2019-06-01T04:24:39.607Z,95.47
2019-06-01T04:27:10.255Z,95.83
2019-06-01T04:29:39.818Z,95.37
2019-06-01T04:32:09.221Z,95.61
2019-06-01T04:34:38.613Z,95.54
2019-06-01T04:37:09.150Z,95.45
2019-06-01T04:39:38.723Z,95.27
2019-06-01T04:42:08.222Z,95.54
2019-06-01T04:44:37.609Z,94.37
2019-06-01T04:47:09.129Z,94.49
2019-06-01T04:49:38.195Z,94.53
2019-06-01T04:52:08.841Z,94.23
2019-06-01T04:54:38.254Z,94.03
2019-06-01T04:57:08.823Z,93.45
2019-06-01T04:59:38.332Z,93.24
2019-06-01T05:02:09.097Z,92.44
2019-06-01T05:04:38.698Z,91.95
2019-06-01T05:07:09.283Z,91.68
2019-06-01T05:09:38.752Z,91.82
2019-06-01T05:12:09.242Z,91.85
2019-06-01T05:14:38.801Z,91.29
2019-06-01T05:17:08.388Z,90.47
2019-06-01T05:19:37.795Z,91.22
2019-06-01T05:22:08.368Z,90.24
2019-06-01T05:24:37.763Z,90.11
2019-06-01T05:27:08.895Z,89.22
2019-06-01T05:29:39.133Z,89.06
2019-06-01T05:32:08.559Z,87.87
2019-06-01T05:34:39.002Z,87.48
2019-06-01T05:37:08.542Z,88.60
2019-06-01T05:39:45.242Z,88.37
2019-06-01T05:42:14.850Z,88.08
2019-06-01T05:44:44.320Z,88.63
2019-06-01T05:47:14.251Z,87.93
2019-06-01T05:49:43.696Z,87.27
2019-06-01T05:52:13.041Z,87.26
2019-06-01T05:54:42.458Z,87.66
2019-06-01T05:57:12.677Z,86.96
2019-06-01T05:59:42.115Z,86.62
2019-06-01T06:02:11.495Z,86.76
2019-06-01T06:04:40.915Z,86.15
2019-06-01T06:07:10.651Z,86.85
2019-06-01T06:09:40.218Z,86.93
2019-06-01T06:12:11.127Z,86.74
2019-06-01T06:14:40.665Z,86.63
2019-06-01T06:17:12.861Z,86.28
2019-06-01T06:19:41.169Z,85.60
2019-06-01T06:22:10.554Z,85.42
2019-06-01T06:24:39.948Z,84.31
2019-06-01T06:27:09.340Z,84.36
2019-06-01T06:29:38.685Z,84.43
2019-06-01T06:32:09.329Z,83.97
2019-06-01T06:34:38.923Z,83.64
2019-06-01T06:37:08.388Z,82.98
2019-06-01T06:39:37.742Z,83.19
2019-06-01T06:42:07.203Z,81.78
2019-06-01T06:44:36.871Z,81.32
2019-06-01T06:47:06.298Z,82.42
2019-06-01T06:49:35.674Z,82.42
2019-06-01T06:52:05.075Z,80.83
2019-06-01T06:54:34.408Z,81.52
2019-06-01T06:57:03.759Z,80.26
2019-06-01T06:59:33.191Z,80.69
2019-06-01T07:02:02.647Z,80.49
2019-06-01T07:04:31.980Z,79.50
2019-06-01T07:07:01.321Z,79.37
2019-06-01T07:09:30.772Z,80.19
2019-06-01T07:12:00.149Z,77.14
2019-06-01T07:14:29.543Z,77.14
2019-06-01T07:16:58.931Z,78.14
2019-06-01T07:19:28.518Z,78.30
2019-06-01T07:21:57.885Z,77.83
2019-06-01T07:24:28.102Z,76.87
2019-06-01T07:26:57.579Z,76.14
2019-06-01T07:29:28.039Z,76.64
2019-06-01T07:31:57.749Z,77.36
2019-06-01T07:34:37.740Z,77.96
2019-06-01T07:36:58.544Z,76.84
2019-06-01T07:39:29.088Z,76.66
2019-06-01T07:41:58.752Z,76.12
2019-06-01T07:44:29.263Z,75.26
2019-06-01T07:46:58.647Z,75.77
2019-06-01T07:49:29.200Z,74.25
2019-06-01T07:51:58.590Z,73.57
2019-06-01T07:54:28.503Z,72.94
2019-06-01T07:56:57.860Z,72.05
2019-06-01T07:59:28.321Z,72.60
2019-06-01T08:01:57.861Z,69.61
2019-06-01T08:04:28.617Z,70.35
2019-06-01T08:06:58.504Z,70.17
2019-06-01T08:09:27.983Z,70.19
2019-06-01T08:11:58.609Z,68.74
2019-06-01T08:14:28.619Z,69.50
2019-06-01T08:16:58.156Z,69.02
2019-06-01T08:19:28.071Z,68.91
2019-06-01T08:21:57.545Z,69.08
2019-06-01T08:24:28.196Z,69.20
2019-06-01T08:26:57.783Z,69.44
2019-06-01T08:29:27.116Z,69.14
2019-06-01T08:31:56.489Z,69.32
2019-06-01T08:34:26.918Z,67.88
2019-06-01T08:36:56.417Z,68.38
2019-06-01T08:39:25.792Z,66.42
2019-06-01T08:41:55.241Z,66.00
2019-06-01T08:44:25.418Z,65.53
2019-06-01T08:46:54.889Z,64.91
2019-06-01T08:49:24.328Z,64.75
2019-06-01T08:51:55.098Z,63.72
2019-06-01T08:54:24.481Z,64.77
2019-06-01T08:56:56.870Z,66.42
2019-06-01T08:59:26.305Z,65.12
2019-06-01T09:01:55.701Z,65.32
2019-06-01T09:04:25.052Z,64.06
2019-06-01T09:06:54.433Z,63.57
2019-06-01T09:09:24.898Z,63.99
2019-06-01T09:11:54.327Z,63.89
2019-06-01T09:14:25.097Z,63.96
2019-06-01T09:16:54.597Z,64.73
2019-06-01T09:19:25.326Z,62.70
2019-06-01T09:21:54.878Z,63.09
2019-06-01T09:24:25.655Z,62.61
2019-06-01T09:26:55.159Z,60.22
2019-06-01T09:29:25.741Z,59.07
2019-06-01T09:31:55.183Z,58.68
2019-06-01T09:34:24.525Z,59.01
2019-06-01T09:36:55.625Z,59.80
2019-06-01T09:39:26.466Z,58.75
2019-06-01T09:41:56.014Z,58.68
2019-06-01T09:44:26.768Z,58.32
2019-06-01T09:46:56.269Z,56.86
2019-06-01T09:49:25.652Z,58.15
2019-06-01T09:51:55.054Z,58.09
2019-06-01T09:54:24.525Z,58.61
2019-06-01T09:56:53.917Z,58.87
2019-06-01T09:59:23.281Z,58.03
2019-06-01T10:01:52.627Z,58.75
2019-06-01T10:04:22.027Z,57.89
2019-06-01T10:06:51.367Z,58.03
2019-06-01T10:09:20.767Z,57.50
2019-06-01T10:11:50.171Z,56.83
2019-06-01T10:14:19.524Z,57.39
2019-06-01T10:16:48.914Z,55.27
2019-06-01T10:19:18.301Z,55.13
2019-06-01T10:21:47.672Z,54.40
2019-06-01T10:24:17.081Z,56.23
2019-06-01T10:26:46.677Z,55.71
2019-06-01T10:29:16.071Z,53.06
2019-06-01T10:31:45.716Z,53.25
2019-06-01T10:34:15.183Z,53.81
2019-06-01T10:36:44.579Z,54.35
2019-06-01T10:39:14.031Z,53.04
2019-06-01T10:41:43.552Z,53.36
2019-06-01T10:44:12.892Z,52.04
2019-06-01T10:46:42.264Z,51.41
2019-06-01T10:49:11.695Z,51.90
2019-06-01T10:51:42.267Z,52.01
2019-06-01T10:54:11.818Z,52.05
2019-06-01T10:56:42.477Z,51.95
2019-06-01T10:59:12.010Z,50.00
2019-06-01T11:01:42.614Z,50.00
2019-06-01T11:04:12.213Z,48.06
2019-06-01T11:06:47.788Z,49.15
2019-06-01T11:09:12.755Z,47.72
2019-06-01T11:11:43.207Z,46.20
2019-06-01T11:14:12.586Z,46.54
2019-06-01T11:16:43.788Z,46.79
2019-06-01T11:19:13.576Z,47.15
2019-06-01T11:21:43.752Z,48.44
2019-06-01T11:24:13.249Z,49.33
2019-06-01T11:26:43.772Z,48.73
2019-06-01T11:29:13.297Z,49.62
2019-06-01T11:31:44.105Z,47.86
2019-06-01T11:34:13.660Z,45.84
2019-06-01T11:37:03.308Z,46.27
2019-06-01T11:39:14.190Z,44.17
2019-06-01T11:41:44.779Z,43.33
2019-06-01T11:44:14.186Z,43.25
2019-06-01T11:46:43.563Z,42.20
2019-06-01T11:49:12.930Z,43.22
2019-06-01T11:51:43.340Z,43.30
2019-06-01T11:54:12.889Z,42.49
2019-06-01T11:56:43.308Z,42.59
2019-06-01T11:59:12.865Z,43.22
2019-06-01T12:01:42.607Z,43.95
2019-06-01T12:04:13.370Z,43.31
2019-06-01T12:06:44.027Z,44.54
2019-06-01T12:09:16.590Z,45.23
2019-06-01T12:11:46.397Z,43.57
2019-06-01T12:14:15.971Z,43.72
2019-06-01T12:16:46.653Z,44.12
2019-06-01T12:19:16.471Z,44.52
2019-06-01T12:21:47.451Z,45.18
2019-06-01T12:24:16.941Z,43.54
2019-06-01T12:26:47.587Z,43.42
2019-06-01T12:29:17.167Z,44.87
2019-06-01T12:31:46.913Z,44.24
2019-06-01T12:34:17.398Z,42.42
2019-06-01T12:36:46.791Z,42.41
2019-06-01T12:39:16.187Z,43.17
2019-06-01T12:41:45.790Z,43.09
2019-06-01T12:44:15.821Z,43.32
2019-06-01T12:46:45.130Z,41.15
2019-06-01T12:49:14.514Z,39.65
2019-06-01T12:51:44.525Z,39.20
2019-06-01T12:54:14.043Z,40.27
2019-06-01T12:56:44.682Z,39.70
2019-06-01T12:59:14.242Z,39.84
2019-06-01T13:01:43.581Z,39.05
2019-06-01T13:04:13.743Z,38.12
2019-06-01T13:06:43.140Z,38.59
2019-06-01T13:09:12.576Z,38.41
2019-06-01T13:11:43.212Z,38.18
2019-06-01T13:14:12.697Z,38.63
2019-06-01T13:16:47.650Z,37.89
2019-06-01T13:19:13.652Z,38.19
2019-06-01T13:21:43.462Z,39.11
2019-06-01T13:24:12.849Z,38.21
2019-06-01T13:26:43.618Z,37.18
2019-06-01T13:29:13.136Z,37.34
2019-06-01T13:31:42.514Z,36.62
2019-06-01T13:34:11.989Z,36.37
2019-06-01T13:36:42.490Z,36.66
2019-06-01T13:39:11.868Z,36.69
2019-06-01T13:41:41.253Z,36.67
2019-06-01T13:44:10.679Z,37.62
2019-06-01T13:46:40.078Z,39.55
2019-06-01T13:49:09.491Z,38.59
2019-06-01T13:51:38.839Z,40.42
2019-06-01T13:54:08.174Z,39.81
2019-06-01T13:56:37.497Z,39.57
2019-06-01T13:59:06.985Z,41.20
2019-06-01T14:01:36.319Z,41.17
2019-06-01T14:04:07.128Z,41.26
2019-06-01T14:06:36.467Z,41.97
2019-06-01T14:09:07.984Z,42.34
2019-06-01T14:11:40.757Z,43.11
2019-06-01T14:14:10.175Z,42.96
2019-06-01T14:16:39.512Z,41.44
2019-06-01T14:19:08.915Z,42.28
2019-06-01T14:21:38.276Z,43.87
2019-06-01T14:24:07.613Z,44.61
2019-06-01T14:26:36.964Z,43.99
2019-06-01T14:29:07.484Z,42.33
2019-06-01T14:31:36.882Z,42.95
2019-06-01T14:34:06.637Z,41.64
2019-06-01T14:36:36.010Z,42.86
2019-06-01T14:39:07.340Z,43.48
2019-06-01T14:41:36.679Z,43.10
2019-06-01T14:44:06.091Z,42.90
2019-06-01T14:46:50.256Z,43.70
2019-06-01T14:49:06.905Z,44.72
2019-06-01T14:51:36.399Z,45.36
2019-06-01T14:54:05.951Z,45.70
2019-06-01T14:56:35.377Z,46.26
2019-06-01T14:59:04.944Z,46.96
2019-06-01T15:01:34.358Z,46.35
2019-06-01T15:04:03.927Z,47.01
2019-06-01T15:06:33.273Z,47.33
2019-06-01T15:09:17.676Z,47.93
2019-06-01T15:11:33.752Z,47.75
2019-06-01T15:14:03.191Z,48.64
2019-06-01T15:16:32.738Z,49.64
2019-06-01T15:19:02.349Z,51.31
2019-06-01T15:21:31.861Z,52.26
2019-06-01T15:24:02.337Z,52.24
2019-06-01T15:26:31.721Z,51.87
2019-06-01T15:29:01.391Z,51.66
2019-06-01T15:31:30.769Z,51.27
2019-06-01T15:34:01.694Z,51.89
2019-06-01T15:36:31.461Z,53.07
2019-06-01T15:39:02.151Z,54.78
2019-06-01T15:41:31.679Z,54.54
2019-06-01T15:44:01.277Z,55.36
2019-06-01T15:46:30.656Z,55.70
2019-06-01T15:49:00.264Z,56.16
2019-06-01T15:51:29.637Z,56.27
2019-06-01T15:53:59.104Z,55.35
2019-06-01T15:56:28.663Z,55.78
2019-06-01T15:58:58.671Z,54.38
2019-06-01T16:01:29.209Z,53.95
2019-06-01T16:03:59.229Z,53.69
2019-06-01T16:06:28.817Z,53.47
2019-06-01T16:08:59.342Z,53.71
2019-06-01T16:11:28.796Z,54.45
2019-06-01T16:13:58.214Z,54.37
2019-06-01T16:16:27.628Z,53.91
2019-06-01T16:19:02.817Z,54.58
2019-06-01T16:21:28.982Z,54.47
2019-06-01T16:23:58.371Z,53.92
2019-06-01T16:26:27.749Z,53.97
2019-06-01T16:28:58.513Z,53.71
2019-06-01T16:31:28.012Z,53.39
2019-06-01T16:33:58.514Z,53.17
2019-06-01T16:36:28.060Z,52.60
2019-06-01T16:39:02.747Z,52.86
2019-06-01T16:41:28.561Z,52.24
2019-06-01T16:43:57.898Z,54.26
2019-06-01T16:46:27.269Z,55.67
2019-06-01T16:48:57.496Z,57.58
2019-06-01T16:51:26.950Z,58.66
2019-06-01T16:53:56.367Z,57.80
2019-06-01T16:56:25.743Z,56.62
2019-06-01T16:58:55.995Z,58.98
2019-06-01T17:01:26.377Z,57.52
2019-06-01T17:03:56.393Z,56.48
2019-06-01T17:06:25.842Z,55.18
2019-06-01T17:08:56.612Z,56.02
2019-06-01T17:11:26.197Z,58.53
2019-06-01T17:13:56.592Z,59.38
2019-06-01T17:16:26.100Z,59.49
2019-06-01T17:18:56.875Z,59.43
2019-06-01T17:21:26.315Z,58.77
2019-06-01T17:23:55.732Z,60.08
2019-06-01T17:26:25.116Z,61.15
2019-06-01T17:28:54.503Z,61.92
2019-06-01T17:31:23.877Z,62.17
2019-06-01T17:33:53.209Z,62.97
2019-06-01T17:36:22.575Z,63.54
2019-06-01T17:38:51.967Z,64.30
2019-06-01T17:41:21.349Z,64.96
2019-06-01T17:43:50.819Z,65.20
2019-06-01T17:46:20.213Z,65.86
2019-06-01T17:48:50.900Z,66.52
2019-06-01T17:51:20.239Z,66.94
2019-06-01T17:53:53.123Z,67.38
2019-06-01T17:56:20.725Z,67.64
2019-06-01T17:58:51.610Z,67.84
2019-06-01T18:01:20.973Z,68.26
2019-06-01T18:03:50.367Z,68.46
2019-06-01T18:06:19.741Z,69.42
2019-06-01T18:08:49.631Z,69.50
2019-06-01T18:11:18.997Z,69.66
2019-06-01T18:13:50.392Z,70.26
2019-06-01T18:16:19.751Z,70.96
2019-06-01T18:18:49.072Z,70.88
2019-06-01T18:21:18.439Z,71.14
2019-06-01T18:23:49.277Z,71.56
2019-06-01T18:26:18.830Z,71.37
2019-06-01T18:28:49.466Z,71.91
2019-06-01T18:31:18.928Z,71.97
2019-06-01T18:33:48.313Z,71.58
2019-06-01T18:36:17.669Z,72.01
2019-06-01T18:38:47.066Z,72.46
2019-06-01T18:41:19.887Z,72.44
2019-06-01T18:43:47.571Z,72.83
2019-06-01T18:46:17.056Z,72.72
2019-06-01T18:48:46.404Z,72.61
2019-06-01T18:51:15.750Z,73.61
2019-06-01T18:53:45.146Z,73.54
2019-06-01T18:56:14.514Z,73.96
2019-06-01T18:58:43.960Z,73.05
2019-06-01T19:01:14.646Z,72.99
2019-06-01T19:03:44.187Z,73.22
2019-06-01T19:06:13.878Z,73.58
2019-06-01T19:08:43.433Z,73.97
2019-06-01T19:11:27.352Z,73.87
2019-06-01T19:13:43.929Z,74.13
2019-06-01T19:16:14.318Z,74.26
2019-06-01T19:18:43.789Z,74.01
2019-06-01T19:21:13.170Z,74.26
2019-06-01T19:23:42.516Z,74.34
2019-06-01T19:26:14.796Z,74.33
2019-06-01T19:28:43.004Z,74.30
2019-06-01T19:31:13.387Z,75.04
2019-06-01T19:33:43.232Z,74.87
2019-06-01T19:36:13.083Z,75.06
2019-06-01T19:38:44.098Z,75.30
2019-06-01T19:41:13.537Z,75.87
2019-06-01T19:43:43.111Z,76.24
2019-06-01T19:46:12.506Z,77.14
2019-06-01T19:48:41.891Z,76.85
2019-06-01T19:51:12.384Z,76.78
2019-06-01T19:53:42.437Z,77.66
2019-06-01T19:56:12.891Z,77.19
2019-06-01T19:58:42.339Z,75.94
2019-06-01T20:01:12.282Z,76.51
2019-06-01T20:03:41.765Z,76.50
2019-06-01T20:06:11.181Z,76.64
2019-06-01T20:08:40.634Z,76.92
2019-06-01T20:11:11.165Z,76.66
2019-06-01T20:13:40.546Z,76.84
2019-06-01T20:16:16.796Z,76.55
2019-06-01T20:18:57.473Z,76.49
2019-06-01T20:21:27.294Z,76.70
2019-06-01T20:23:57.258Z,76.68
2019-06-01T20:26:40.840Z,76.43
2019-06-01T20:29:03.602Z,75.91
2019-06-01T20:31:32.946Z,77.09
2019-06-01T20:34:05.838Z,77.83
2019-06-01T20:36:35.343Z,77.84
2019-06-01T20:39:07.920Z,77.73
2019-06-01T20:41:37.299Z,78.45
2019-06-01T20:44:06.660Z,79.19
2019-06-01T20:46:36.065Z,78.97
2019-06-01T20:49:05.574Z,78.95
2019-06-01T20:51:34.942Z,79.14
2019-06-01T20:54:04.299Z,79.22
2019-06-01T20:56:33.674Z,79.89
2019-06-01T20:59:03.073Z,79.59
2019-06-01T21:01:32.435Z,79.83
2019-06-01T21:04:01.851Z,80.58
2019-06-01T21:06:31.203Z,80.76
2019-06-01T21:09:00.549Z,81.03
2019-06-01T21:11:29.930Z,81.07
2019-06-01T21:13:59.300Z,80.92
2019-06-01T21:16:28.639Z,81.22
2019-06-01T21:18:58.013Z,81.36
2019-06-01T21:21:27.539Z,81.42
2019-06-01T21:23:56.956Z,81.43
2019-06-01T21:26:26.296Z,81.54
2019-06-01T21:28:55.650Z,81.52
2019-06-01T21:31:25.454Z,82.21
2019-06-01T21:33:55.014Z,81.23
2019-06-01T21:36:25.794Z,81.35
2019-06-01T21:38:55.284Z,81.33
2019-06-01T21:41:25.772Z,81.65
2019-06-01T21:43:55.215Z,82.23
2019-06-01T21:46:25.731Z,82.18
2019-06-01T21:48:56.183Z,82.50
2019-06-01T21:51:26.015Z,83.32
2019-06-01T21:53:55.599Z,83.53
2019-06-01T21:56:25.249Z,84.75
2019-06-01T21:58:55.905Z,85.15
2019-06-01T22:01:25.245Z,85.18
2019-06-01T22:03:54.631Z,86.05
2019-06-01T22:06:25.544Z,86.23
2019-06-01T22:08:55.072Z,86.57
2019-06-01T22:11:25.562Z,88.90
2019-06-01T22:13:55.110Z,91.88
2019-06-01T22:16:25.726Z,94.08
2019-06-01T22:18:55.335Z,91.71
2019-06-01T22:21:25.857Z,93.07
2019-06-01T22:23:55.364Z,93.60
2019-06-01T22:26:24.749Z,93.32
2019-06-01T22:28:54.119Z,94.33
2019-06-01T22:31:24.573Z,93.89
2019-06-01T22:33:54.003Z,95.61
2019-06-01T22:36:23.363Z,97.20
2019-06-01T22:38:52.737Z,97.94
2019-06-01T22:41:22.085Z,98.82
2019-06-01T22:43:51.472Z,98.35
2019-06-01T22:46:20.868Z,98.02
2019-06-01T22:48:50.228Z,98.10
2019-06-01T22:51:20.778Z,98.03
2019-06-01T22:53:50.146Z,98.87
2019-06-01T22:56:19.530Z,99.16
2019-06-01T22:58:48.887Z,99.21
2019-06-01T23:01:18.295Z,99.36
2019-06-01T23:03:47.649Z,98.54
2019-06-01T23:06:17.029Z,98.70
2019-06-01T23:08:46.407Z,99.19
2019-06-01T23:11:15.824Z,98.22
2019-06-01T23:13:53.499Z,97.54
2019-06-01T23:16:16.309Z,98.19
2019-06-01T23:18:45.649Z,97.37
2019-06-01T23:21:15.001Z,96.75
2019-06-01T23:23:44.363Z,97.48
2019-06-01T23:26:13.682Z,97.70
2019-06-01T23:28:43.050Z,98.26
2019-06-01T23:31:12.392Z,99.65
2019-06-01T23:33:41.911Z,100.00
2019-06-01T23:36:11.261Z,100.00
2019-06-01T23:38:40.611Z,100.00
2019-06-01T23:41:09.964Z,100.00
2019-06-01T23:43:39.418Z,100.00
2019-06-01T23:46:08.785Z,100.00
2019-06-01T23:48:38.148Z,100.00
2019-06-01T23:51:07.541Z,100.00
2019-06-01T23:53:36.920Z,98.64
2019-06-01T23:56:06.272Z,98.65
2019-06-01T23:58:35.669Z,99.11
